sensor_id;sensor_type;location;lat;lon;timestamp;pressure;altitude;pressure_sealevel;temperature;humidity
71195;BME280;58908;51.426;7.714;2023-05-12T00:01:38;99602.53;;;12.19;100.00
71195;BME280;58908;51.426;7.714;2023-05-12T00:04:07;99608.00;;;12.16;100.00
71195;BME280;58908;51.426;7.714;2023-05-12T00:06:33;99608.13;;;12.14;100.00
71195;BME280;58908;51.426;7.714;2023-05-12T00:08:59;99598.56;;;12.12;100.00
71195;BME280;58908;51.426;7.714;2023-05-12T00:11:25;99600.69;;;12.07;100.00
71195;BME280;58908;51.426;7.714;2023-05-12T00:13:53;99611.34;;;12.05;100.00
71195;BME280;58908;51.426;7.714;2023-05-12T00:16:19;99608.78;;;12.04;100.00
71195;BME280;58908;51.426;7.714;2023-05-12T00:18:45;99614.28;;;12.01;100.00
71195;BME280;58908;51.426;7.714;2023-05-12T00:21:13;99617.81;;;12.01;100.00
71195;BME280;58908;51.426;7.714;2023-05-12T00:23:39;99617.03;;;11.99;100.00
71195;BME280;58908;51.426;7.714;2023-05-12T00:26:05;99623.38;;;11.97;100.00
71195;BME280;58908;51.426;7.714;2023-05-12T00:28:32;99623.47;;;11.95;100.00
71195;BME280;58908;51.426;7.714;2023-05-12T00:31:00;99617.34;;;11.95;100.00
71195;BME280;58908;51.426;7.714;2023-05-12T00:33:26;99624.41;;;11.94;100.00
71195;BME280;58908;51.426;7.714;2023-05-12T00:35:52;99623.75;;;11.91;100.00
71195;BME280;58908;51.426;7.714;2023-05-12T00:38:20;99620.38;;;11.89;100.00
71195;BME280;58908;51.426;7.714;2023-05-12T00:40:46;99623.03;;;11.89;100.00
71195;BME280;58908;51.426;7.714;2023-05-12T00:43:13;99632.94;;;11.86;100.00
71195;BME280;58908;51.426;7.714;2023-05-12T00:45:39;99622.38;;;11.86;100.00
71195;BME280;58908;51.426;7.714;2023-05-12T00:48:05;99630.41;;;11.84;100.00
71195;BME280;58908;51.426;7.714;2023-05-12T00:50:32;99631.44;;;11.82;100.00
71195;BME280;58908;51.426;7.714;2023-05-12T00:52:59;99634.91;;;11.82;100.00
71195;BME280;58908;51.426;7.714;2023-05-12T00:55:27;99631.44;;;11.82;100.00
71195;BME280;58908;51.426;7.714;2023-05-12T00:57:54;99632.47;;;11.79;100.00
71195;BME280;58908;51.426;7.714;2023-05-12T01:00:20;99643.16;;;11.78;100.00
71195;BME280;58908;51.426;7.714;2023-05-12T01:02:47;99632.59;;;11.78;100.00
71195;BME280;58908;51.426;7.714;2023-05-12T01:05:13;99631.66;;;11.79;100.00
71195;BME280;58908;51.426;7.714;2023-05-12T01:07:39;99632.78;;;11.75;100.00
71195;BME280;58908;51.426;7.714;2023-05-12T01:10:15;99634.59;;;11.74;100.00
71195;BME280;58908;51.426;7.714;2023-05-12T01:12:43;99635.63;;;11.72;100.00
71195;BME280;58908;51.426;7.714;2023-05-12T01:15:09;99637.50;;;11.70;100.00
71195;BME280;58908;51.426;7.714;2023-05-12T01:17:36;99634.00;;;11.69;100.00
71195;BME280;58908;51.426;7.714;2023-05-12T01:20:05;99638.47;;;11.69;100.00
71195;BME280;58908;51.426;7.714;2023-05-12T01:22:32;99634.22;;;11.66;100.00
71195;BME280;58908;51.426;7.714;2023-05-12T01:24:59;99633.25;;;11.67;100.00
71195;BME280;58908;51.426;7.714;2023-05-12T01:27:28;99632.53;;;11.65;100.00
71195;BME280;58908;51.426;7.714;2023-05-12T01:29:54;99631.56;;;11.66;100.00
71195;BME280;58908;51.426;7.714;2023-05-12T01:32:22;99635.91;;;11.67;100.00
71195;BME280;58908;51.426;7.714;2023-05-12T01:34:48;99630.91;;;11.63;100.00
71195;BME280;58908;51.426;7.714;2023-05-12T01:37:15;99640.72;;;11.61;100.00
71195;BME280;58908;51.426;7.714;2023-05-12T01:39:41;99637.16;;;11.62;100.00
71195;BME280;58908;51.426;7.714;2023-05-12T01:42:07;99643.47;;;11.59;100.00
71195;BME280;58908;51.426;7.714;2023-05-12T01:44:35;99641.88;;;11.57;100.00
71195;BME280;58908;51.426;7.714;2023-05-12T01:47:01;99640.97;;;11.56;100.00
71195;BME280;58908;51.426;7.714;2023-05-12T01:49:28;99640.25;;;11.54;100.00
71195;BME280;58908;51.426;7.714;2023-05-12T01:51:54;99643.72;;;11.55;100.00
71195;BME280;58908;51.426;7.714;2023-05-12T01:54:20;99637.78;;;11.51;100.00
71195;BME280;58908;51.426;7.714;2023-05-12T01:56:47;99641.19;;;11.53;100.00
71195;BME280;58908;51.426;7.714;2023-05-12T01:59:13;99639.28;;;11.55;100.00
71195;BME280;58908;51.426;7.714;2023-05-12T02:01:41;99643.81;;;11.53;100.00
71195;BME280;58908;51.426;7.714;2023-05-12T02:04:07;99649.47;;;11.47;100.00
71195;BME280;58908;51.426;7.714;2023-05-12T02:06:33;99660.25;;;11.44;100.00
71195;BME280;58908;51.426;7.714;2023-05-12T02:09:00;99658.34;;;11.46;100.00
71195;BME280;58908;51.426;7.714;2023-05-12T02:11:26;99652.53;;;11.41;100.00
71195;BME280;58908;51.426;7.714;2023-05-12T02:13:52;99661.94;;;11.45;100.00
71195;BME280;58908;51.426;7.714;2023-05-12T02:16:18;99660.03;;;11.47;100.00
71195;BME280;58908;51.426;7.714;2023-05-12T02:18:46;99660.16;;;11.46;100.00
71195;BME280;58908;51.426;7.714;2023-05-12T02:21:12;99667.03;;;11.48;100.00
71195;BME280;58908;51.426;7.714;2023-05-12T02:23:39;99659.97;;;11.49;100.00
71195;BME280;58908;51.426;7.714;2023-05-12T02:26:05;99663.56;;;11.48;100.00
71195;BME280;58908;51.426;7.714;2023-05-12T02:28:31;99660.03;;;11.47;100.00
71195;BME280;58908;51.426;7.714;2023-05-12T02:30:58;99661.19;;;11.43;100.00
71195;BME280;58908;51.426;7.714;2023-05-12T02:33:24;99663.09;;;11.41;100.00
71195;BME280;58908;51.426;7.714;2023-05-12T02:35:52;99667.41;;;11.42;100.00
71195;BME280;58908;51.426;7.714;2023-05-12T02:38:18;99666.66;;;11.40;100.00
71195;BME280;58908;51.426;7.714;2023-05-12T02:40:45;99661.47;;;11.39;100.00
71195;BME280;58908;51.426;7.714;2023-05-12T02:43:11;99659.84;;;11.36;100.00
71195;BME280;58908;51.426;7.714;2023-05-12T02:45:37;99662.63;;;11.35;100.00
71195;BME280;58908;51.426;7.714;2023-05-12T02:48:04;99672.41;;;11.33;100.00
71195;BME280;58908;51.426;7.714;2023-05-12T02:50:31;99665.34;;;11.33;100.00
71195;BME280;58908;51.426;7.714;2023-05-12T02:52:58;99665.63;;;11.29;100.00
71195;BME280;58908;51.426;7.714;2023-05-12T02:55:25;99663.06;;;11.27;100.00
71195;BME280;58908;51.426;7.714;2023-05-12T02:57:52;99667.59;;;11.25;100.00
71195;BME280;58908;51.426;7.714;2023-05-12T03:00:18;99666.75;;;11.25;100.00
71195;BME280;58908;51.426;7.714;2023-05-12T03:02:44;99665.91;;;11.24;100.00
71195;BME280;58908;51.426;7.714;2023-05-12T03:05:10;99670.34;;;11.24;100.00
71195;BME280;58908;51.426;7.714;2023-05-12T03:07:37;99668.66;;;11.23;100.00
71195;BME280;58908;51.426;7.714;2023-05-12T03:10:05;99672.22;;;11.22;100.00
71195;BME280;58908;51.426;7.714;2023-05-12T03:12:32;99674.97;;;11.20;100.00
71195;BME280;58908;51.426;7.714;2023-05-12T03:14:59;99667.03;;;11.20;100.00
71195;BME280;58908;51.426;7.714;2023-05-12T03:17:25;99668.94;;;11.18;100.00
71195;BME280;58908;51.426;7.714;2023-05-12T03:19:51;99676.94;;;11.17;100.00
71195;BME280;58908;51.426;7.714;2023-05-12T03:22:18;99676.06;;;11.16;100.00
71195;BME280;58908;51.426;7.714;2023-05-12T03:24:44;99676.19;;;11.15;100.00
71195;BME280;58908;51.426;7.714;2023-05-12T03:27:11;99678.81;;;11.15;100.00
71195;BME280;58908;51.426;7.714;2023-05-12T03:29:38;99679.75;;;11.14;100.00
71195;BME280;58908;51.426;7.714;2023-05-12T03:32:05;99677.00;;;11.15;100.00
71195;BME280;58908;51.426;7.714;2023-05-12T03:34:31;99684.94;;;11.15;100.00
71195;BME280;58908;51.426;7.714;2023-05-12T03:36:57;99685.03;;;11.14;100.00
71195;BME280;58908;51.426;7.714;2023-05-12T03:39:23;99689.47;;;11.13;100.00
71195;BME280;58908;51.426;7.714;2023-05-12T03:41:50;99688.50;;;11.14;100.00
71195;BME280;58908;51.426;7.714;2023-05-12T03:44:18;99690.31;;;11.14;100.00
71195;BME280;58908;51.426;7.714;2023-05-12T03:46:44;99688.50;;;11.14;100.00
71195;BME280;58908;51.426;7.714;2023-05-12T03:49:10;99683.22;;;11.14;100.00
71195;BME280;58908;51.426;7.714;2023-05-12T03:51:36;99688.50;;;11.14;100.00
71195;BME280;58908;51.426;7.714;2023-05-12T03:54:03;99688.50;;;11.14;100.00
71195;BME280;58908;51.426;7.714;2023-05-12T03:56:29;99692.09;;;11.13;100.00
71195;BME280;58908;51.426;7.714;2023-05-12T03:58:55;99688.44;;;11.16;100.00
71195;BME280;58908;51.426;7.714;2023-05-12T04:01:23;99695.50;;;11.15;100.00
71195;BME280;58908;51.426;7.714;2023-05-12T04:03:50;99692.03;;;11.15;100.00
71195;BME280;58908;51.426;7.714;2023-05-12T04:06:16;99687.69;;;11.14;100.00
71195;BME280;58908;51.426;7.714;2023-05-12T04:08:42;99697.38;;;11.13;100.00
71195;BME280;58908;51.426;7.714;2023-05-12T04:11:08;99708.88;;;11.12;100.00
71195;BME280;58908;51.426;7.714;2023-05-12T04:13:35;99709.75;;;11.13;100.00
71195;BME280;58908;51.426;7.714;2023-05-12T04:16:01;99711.44;;;11.14;100.00
71195;BME280;58908;51.426;7.714;2023-05-12T04:18:28;99709.81;;;11.11;100.00
71195;BME280;58908;51.426;7.714;2023-05-12T04:20:55;99710.78;;;11.10;100.00
71195;BME280;58908;51.426;7.714;2023-05-12T04:23:21;99715.19;;;11.10;100.00
71195;BME280;58908;51.426;7.714;2023-05-12T04:25:47;99716.81;;;11.12;100.00
71195;BME280;58908;51.426;7.714;2023-05-12T04:28:14;99722.94;;;11.13;100.00
71195;BME280;58908;51.426;7.714;2023-05-12T04:30:40;99710.78;;;11.10;100.00
71195;BME280;58908;51.426;7.714;2023-05-12T04:33:06;99716.72;;;11.14;100.00
71195;BME280;58908;51.426;7.714;2023-05-12T04:35:34;99723.69;;;11.15;100.00
71195;BME280;58908;51.426;7.714;2023-05-12T04:38:01;99726.34;;;11.15;100.00
71195;BME280;58908;51.426;7.714;2023-05-12T04:40:27;99722.84;;;11.14;100.00
71195;BME280;58908;51.426;7.714;2023-05-12T04:42:54;99721.88;;;11.15;100.00
71195;BME280;58908;51.426;7.714;2023-05-12T04:45:21;99722.47;;;11.20;100.00
71195;BME280;58908;51.426;7.714;2023-05-12T04:47:47;99736.50;;;11.21;100.00
71195;BME280;58908;51.426;7.714;2023-05-12T04:50:13;99739.16;;;11.21;100.00
71195;BME280;58908;51.426;7.714;2023-05-12T04:52:41;99741.25;;;11.30;100.00
71195;BME280;58908;51.426;7.714;2023-05-12T04:55:08;99748.22;;;11.31;100.00
71195;BME280;58908;51.426;7.714;2023-05-12T04:57:34;99754.09;;;11.36;100.00
71195;BME280;58908;51.426;7.714;2023-05-12T05:00:01;99762.03;;;11.36;100.00
71195;BME280;58908;51.426;7.714;2023-05-12T05:02:29;99763.59;;;11.38;100.00
71195;BME280;58908;51.426;7.714;2023-05-12T05:04:56;99773.63;;;11.33;100.00
71195;BME280;58908;51.426;7.714;2023-05-12T05:07:22;99771.44;;;11.40;100.00
71195;BME280;58908;51.426;7.714;2023-05-12T05:09:50;99779.28;;;11.41;100.00
71195;BME280;58908;51.426;7.714;2023-05-12T05:12:16;99778.22;;;11.44;100.00
71195;BME280;58908;51.426;7.714;2023-05-12T05:14:42;99778.53;;;11.39;100.00
71195;BME280;58908;51.426;7.714;2023-05-12T05:17:08;99785.88;;;11.34;100.00
71195;BME280;58908;51.426;7.714;2023-05-12T05:19:36;99786.63;;;11.36;100.00
71195;BME280;58908;51.426;7.714;2023-05-12T05:22:02;99783.81;;;11.39;100.00
71195;BME280;58908;51.426;7.714;2023-05-12T05:24:29;99791.38;;;11.45;100.00
71195;BME280;58908;51.426;7.714;2023-05-12T05:26:56;99792.22;;;11.46;100.00
71195;BME280;58908;51.426;7.714;2023-05-12T05:29:23;99800.44;;;11.55;100.00
71195;BME280;58908;51.426;7.714;2023-05-12T05:31:50;99807.84;;;11.64;100.00
71195;BME280;58908;51.426;7.714;2023-05-12T05:34:17;99800.66;;;11.66;100.00
71195;BME280;58908;51.426;7.714;2023-05-12T05:36:43;99798.69;;;11.70;100.00
71195;BME280;58908;51.426;7.714;2023-05-12T05:39:09;99805.59;;;11.86;100.00
71195;BME280;58908;51.426;7.714;2023-05-12T05:41:36;99803.22;;;11.82;100.00
71195;BME280;58908;51.426;7.714;2023-05-12T05:44:04;99810.50;;;11.92;100.00
71195;BME280;58908;51.426;7.714;2023-05-12T05:46:30;99815.56;;;11.81;100.00
71195;BME280;58908;51.426;7.714;2023-05-12T05:48:56;99816.63;;;11.79;100.00
71195;BME280;58908;51.426;7.714;2023-05-12T05:51:23;99817.31;;;11.96;100.00
71195;BME280;58908;51.426;7.714;2023-05-12T05:53:49;99820.78;;;11.96;100.00
71195;BME280;58908;51.426;7.714;2023-05-12T05:56:15;99829.19;;;11.89;100.00
71195;BME280;58908;51.426;7.714;2023-05-12T05:58:42;99824.84;;;11.88;100.00
71195;BME280;58908;51.426;7.714;2023-05-12T06:01:09;99828.44;;;11.87;100.00
71195;BME280;58908;51.426;7.714;2023-05-12T06:03:36;99820.13;;;11.79;100.00
71195;BME280;58908;51.426;7.714;2023-05-12T06:06:02;99823.63;;;11.93;100.00
71195;BME280;58908;51.426;7.714;2023-05-12T06:08:28;99828.91;;;11.93;100.00
71195;BME280;58908;51.426;7.714;2023-05-12T06:10:55;99830.13;;;11.88;100.00
71195;BME280;58908;51.426;7.714;2023-05-12T06:13:21;99831.34;;;11.96;100.00
71195;BME280;58908;51.426;7.714;2023-05-12T06:15:47;99836.75;;;11.95;100.00
71195;BME280;58908;51.426;7.714;2023-05-12T06:18:15;99845.59;;;11.94;100.00
71195;BME280;58908;51.426;7.714;2023-05-12T06:20:41;99837.59;;;11.95;100.00
71195;BME280;58908;51.426;7.714;2023-05-12T06:23:07;99843.34;;;11.88;100.00
71195;BME280;58908;51.426;7.714;2023-05-12T06:25:34;99842.97;;;11.94;100.00
71195;BME280;58908;51.426;7.714;2023-05-12T06:28:00;99843.25;;;12.03;100.00
71195;BME280;58908;51.426;7.714;2023-05-12T06:30:26;99850.44;;;12.01;100.00
71195;BME280;58908;51.426;7.714;2023-05-12T06:32:52;99853.44;;;12.09;100.00
71195;BME280;58908;51.426;7.714;2023-05-12T06:35:20;99847.13;;;12.12;100.00
71195;BME280;58908;51.426;7.714;2023-05-12T06:37:46;99851.66;;;12.24;100.00
71195;BME280;58908;51.426;7.714;2023-05-12T06:40:14;99850.53;;;12.14;100.00
71195;BME280;58908;51.426;7.714;2023-05-12T06:42:41;99857.13;;;12.21;100.00
71195;BME280;58908;51.426;7.714;2023-05-12T06:45:08;99857.81;;;12.24;100.00
71195;BME280;58908;51.426;7.714;2023-05-12T06:47:34;99857.22;;;12.19;100.00
71195;BME280;58908;51.426;7.714;2023-05-12T06:50:01;99864.69;;;12.41;100.00
71195;BME280;58908;51.426;7.714;2023-05-12T06:52:28;99865.63;;;12.40;100.00
71195;BME280;58908;51.426;7.714;2023-05-12T06:54:55;99865.06;;;12.35;100.00
71195;BME280;58908;51.426;7.714;2023-05-12T06:57:21;99864.78;;;12.39;100.00
71195;BME280;58908;51.426;7.714;2023-05-12T06:59:47;99867.34;;;12.41;100.00
71195;BME280;58908;51.426;7.714;2023-05-12T07:02:14;99871.56;;;12.57;100.00
71195;BME280;58908;51.426;7.714;2023-05-12T07:04:40;99869.75;;;12.72;100.00
71195;BME280;58908;51.426;7.714;2023-05-12T07:07:07;99872.56;;;12.69;100.00
71195;BME280;58908;51.426;7.714;2023-05-12T07:09:34;99864.66;;;12.55;100.00
71195;BME280;58908;51.426;7.714;2023-05-12T07:12:01;99872.97;;;12.63;100.00
71195;BME280;58908;51.426;7.714;2023-05-12T07:14:28;99868.13;;;12.69;100.00
71195;BME280;58908;51.426;7.714;2023-05-12T07:16:54;99872.69;;;12.67;100.00
71195;BME280;58908;51.426;7.714;2023-05-12T07:19:20;99870.28;;;12.77;100.00
71195;BME280;58908;51.426;7.714;2023-05-12T07:21:46;99870.66;;;12.85;100.00
71195;BME280;58908;51.426;7.714;2023-05-12T07:24:13;99867.72;;;13.16;100.00
71195;BME280;58908;51.426;7.714;2023-05-12T07:26:41;99872.03;;;13.04;100.00
71195;BME280;58908;51.426;7.714;2023-05-12T07:29:08;99869.63;;;13.14;100.00
71195;BME280;58908;51.426;7.714;2023-05-12T07:31:35;99871.38;;;13.27;100.00
71195;BME280;58908;51.426;7.714;2023-05-12T07:34:01;99871.34;;;13.54;100.00
71195;BME280;58908;51.426;7.714;2023-05-12T07:36:28;99875.38;;;13.59;100.00
71195;BME280;58908;51.426;7.714;2023-05-12T07:38:54;99870.28;;;13.69;100.00
71195;BME280;58908;51.426;7.714;2023-05-12T07:41:20;99873.44;;;13.49;100.00
71195;BME280;58908;51.426;7.714;2023-05-12T07:43:48;99871.66;;;13.49;100.00
71195;BME280;58908;51.426;7.714;2023-05-12T07:46:14;99875.47;;;13.58;100.00
71195;BME280;58908;51.426;7.714;2023-05-12T07:48:41;99875.50;;;13.83;100.00
71195;BME280;58908;51.426;7.714;2023-05-12T07:51:08;99878.56;;;13.64;100.00
71195;BME280;58908;51.426;7.714;2023-05-12T07:53:34;99874.44;;;13.73;100.00
71195;BME280;58908;51.426;7.714;2023-05-12T07:56:01;99882.19;;;13.76;100.00
71195;BME280;58908;51.426;7.714;2023-05-12T07:58:28;99881.31;;;13.63;100.00
71195;BME280;58908;51.426;7.714;2023-05-12T08:00:55;99883.88;;;13.77;100.00
71195;BME280;58908;51.426;7.714;2023-05-12T08:03:24;99888.47;;;14.12;100.00
71195;BME280;58908;51.426;7.714;2023-05-12T08:05:50;99882.84;;;14.42;100.00
71195;BME280;58908;51.426;7.714;2023-05-12T08:08:16;99886.34;;;13.92;100.00
71195;BME280;58908;51.426;7.714;2023-05-12T08:10:43;99882.44;;;14.35;100.00
71195;BME280;58908;51.426;7.714;2023-05-12T08:13:09;99888.59;;;14.36;100.00
71195;BME280;58908;51.426;7.714;2023-05-12T08:15:35;99893.00;;;14.10;100.00
71195;BME280;58908;51.426;7.714;2023-05-12T08:18:04;99890.16;;;14.13;100.00
71195;BME280;58908;51.426;7.714;2023-05-12T08:20:30;99886.66;;;14.50;100.00
71195;BME280;58908;51.426;7.714;2023-05-12T08:22:56;99890.50;;;14.34;100.00
71195;BME280;58908;51.426;7.714;2023-05-12T08:25:23;99893.34;;;14.55;100.00
71195;BME280;58908;51.426;7.714;2023-05-12T08:27:49;99893.41;;;14.79;100.00
71195;BME280;58908;51.426;7.714;2023-05-12T08:30:16;99889.91;;;14.66;100.00
71195;BME280;58908;51.426;7.714;2023-05-12T08:32:42;99892.63;;;14.89;100.00
71195;BME280;58908;51.426;7.714;2023-05-12T08:35:10;99897.34;;;15.09;100.00
71195;BME280;58908;51.426;7.714;2023-05-12T08:37:36;99899.03;;;15.10;100.00
71195;BME280;58908;51.426;7.714;2023-05-12T08:40:03;99897.34;;;15.09;100.00
71195;BME280;58908;51.426;7.714;2023-05-12T08:42:35;99898.09;;;14.75;100.00
71195;BME280;58908;51.426;7.714;2023-05-12T08:45:02;99904.63;;;14.82;100.00
71195;BME280;58908;51.426;7.714;2023-05-12T08:47:28;99897.25;;;14.98;100.00
71195;BME280;58908;51.426;7.714;2023-05-12T08:49:57;99900.06;;;15.20;100.00
71195;BME280;58908;51.426;7.714;2023-05-12T08:52:25;99901.13;;;15.18;100.00
71195;BME280;58908;51.426;7.714;2023-05-12T08:54:52;99904.50;;;15.32;100.00
71195;BME280;58908;51.426;7.714;2023-05-12T08:57:18;99908.22;;;15.53;100.00
71195;BME280;58908;51.426;7.714;2023-05-12T08:59:45;99904.88;;;16.08;100.00
71195;BME280;58908;51.426;7.714;2023-05-12T09:02:12;99907.09;;;16.25;100.00
71195;BME280;58908;51.426;7.714;2023-05-12T09:04:38;99907.91;;;16.14;100.00
71195;BME280;58908;51.426;7.714;2023-05-12T09:07:04;99903.84;;;16.76;100.00
71195;BME280;58908;51.426;7.714;2023-05-12T09:09:33;99903.13;;;16.41;100.00
71195;BME280;58908;51.426;7.714;2023-05-12T09:12:01;99899.97;;;16.58;100.00
71195;BME280;58908;51.426;7.714;2023-05-12T09:14:28;99898.00;;;16.16;100.00
71195;BME280;58908;51.426;7.714;2023-05-12T09:16:57;99903.44;;;16.26;100.00
71195;BME280;58908;51.426;7.714;2023-05-12T09:19:24;99894.66;;;16.36;100.00
71195;BME280;58908;51.426;7.714;2023-05-12T09:21:51;99894.53;;;16.60;100.00
71195;BME280;58908;51.426;7.714;2023-05-12T09:24:17;99894.41;;;16.83;100.00
71195;BME280;58908;51.426;7.714;2023-05-12T09:26:45;99902.28;;;16.74;100.00
71195;BME280;58908;51.426;7.714;2023-05-12T09:29:12;99891.59;;;17.27;100.00
71195;BME280;58908;51.426;7.714;2023-05-12T09:31:47;99894.66;;;16.58;100.00
71195;BME280;58908;51.426;7.714;2023-05-12T09:34:13;99889.09;;;17.36;100.00
71195;BME280;58908;51.426;7.714;2023-05-12T09:36:40;99887.81;;;18.13;100.00
71195;BME280;58908;51.426;7.714;2023-05-12T09:39:07;99895.59;;;17.75;100.00
71195;BME280;58908;51.426;7.714;2023-05-12T09:41:34;99896.22;;;17.25;100.00
71195;BME280;58908;51.426;7.714;2023-05-12T09:44:01;99887.78;;;17.20;100.00
71195;BME280;58908;51.426;7.714;2023-05-12T09:46:27;99897.09;;;17.88;100.00
71195;BME280;58908;51.426;7.714;2023-05-12T09:48:54;99895.44;;;17.76;100.00
71195;BME280;58908;51.426;7.714;2023-05-12T09:51:21;99894.03;;;17.93;100.00
71195;BME280;58908;51.426;7.714;2023-05-12T09:53:47;99890.88;;;18.49;100.00
71195;BME280;58908;51.426;7.714;2023-05-12T09:56:14;99902.34;;;17.58;100.00
71195;BME280;58908;51.426;7.714;2023-05-12T09:58:41;99897.66;;;17.92;100.00
71195;BME280;58908;51.426;7.714;2023-05-12T10:01:10;99903.91;;;17.81;100.00
71195;BME280;58908;51.426;7.714;2023-05-12T10:03:37;99905.31;;;17.44;100.00
71195;BME280;58908;51.426;7.714;2023-05-12T10:06:05;99907.16;;;17.64;100.00
71195;BME280;58908;51.426;7.714;2023-05-12T10:08:33;99903.66;;;17.84;100.00
71195;BME280;58908;51.426;7.714;2023-05-12T10:11:01;99895.31;;;17.78;100.00
71195;BME280;58908;51.426;7.714;2023-05-12T10:13:29;99897.59;;;17.82;100.00
71195;BME280;58908;51.426;7.714;2023-05-12T10:15:56;99896.75;;;17.61;100.00
71195;BME280;58908;51.426;7.714;2023-05-12T10:18:25;99899.03;;;18.27;100.00
71195;BME280;58908;51.426;7.714;2023-05-12T10:20:51;99897.28;;;18.37;100.00
71195;BME280;58908;51.426;7.714;2023-05-12T10:23:18;99899.25;;;19.14;100.00
71195;BME280;58908;51.426;7.714;2023-05-12T10:25:45;99893.00;;;19.62;100.00
71195;BME280;58908;51.426;7.714;2023-05-12T10:28:12;99883.84;;;18.88;100.00
71195;BME280;58908;51.426;7.714;2023-05-12T10:30:38;99882.28;;;18.46;100.00
71195;BME280;58908;51.426;7.714;2023-05-12T10:33:06;99891.78;;;18.18;100.00
71195;BME280;58908;51.426;7.714;2023-05-12T10:35:35;99891.84;;;18.48;100.00
71195;BME280;58908;51.426;7.714;2023-05-12T10:38:04;99892.81;;;17.97;100.00
71195;BME280;58908;51.426;7.714;2023-05-12T10:40:30;99894.16;;;18.12;100.00
71195;BME280;58908;51.426;7.714;2023-05-12T10:42:57;99887.59;;;18.36;100.00
71195;BME280;58908;51.426;7.714;2023-05-12T10:45:25;99874.84;;;18.89;100.00
71195;BME280;58908;51.426;7.714;2023-05-12T10:47:51;99873.25;;;19.82;100.00
71195;BME280;58908;51.426;7.714;2023-05-12T10:50:25;99878.78;;;18.85;100.00
71195;BME280;58908;51.426;7.714;2023-05-12T10:52:53;99882.03;;;18.98;100.00
71195;BME280;58908;51.426;7.714;2023-05-12T10:55:28;99879.81;;;18.63;100.00
71195;BME280;58908;51.426;7.714;2023-05-12T10:58:02;99878.72;;;18.75;100.00
71195;BME280;58908;51.426;7.714;2023-05-12T11:00:28;99872.19;;;18.59;100.00
71195;BME280;58908;51.426;7.714;2023-05-12T11:02:54;99875.00;;;18.27;100.00
71195;BME280;58908;51.426;7.714;2023-05-12T11:05:21;99872.84;;;18.21;100.00
71195;BME280;58908;51.426;7.714;2023-05-12T11:07:47;99874.84;;;18.49;100.00
71195;BME280;58908;51.426;7.714;2023-05-12T11:10:15;99871.19;;;18.50;100.00
71195;BME280;58908;51.426;7.714;2023-05-12T11:12:42;99868.34;;;18.22;100.00
71195;BME280;58908;51.426;7.714;2023-05-12T11:15:08;99859.03;;;18.16;100.00
71195;BME280;58908;51.426;7.714;2023-05-12T11:17:37;99872.34;;;18.57;100.00
71195;BME280;58908;51.426;7.714;2023-05-12T11:20:03;99871.75;;;18.44;100.00
71195;BME280;58908;51.426;7.714;2023-05-12T11:22:30;99876.75;;;18.38;100.00
71195;BME280;58908;51.426;7.714;2023-05-12T11:24:57;99876.00;;;19.15;100.00
71195;BME280;58908;51.426;7.714;2023-05-12T11:27:24;99874.25;;;18.85;98.67
71195;BME280;58908;51.426;7.714;2023-05-12T11:29:54;99867.81;;;18.97;100.00
71195;BME280;58908;51.426;7.714;2023-05-12T11:32:21;99869.69;;;19.16;97.45
71195;BME280;58908;51.426;7.714;2023-05-12T11:34:47;99876.25;;;18.93;97.71
71195;BME280;58908;51.426;7.714;2023-05-12T11:37:13;99875.72;;;18.99;95.35
71195;BME280;58908;51.426;7.714;2023-05-12T11:39:40;99869.47;;;19.56;93.88
71195;BME280;58908;51.426;7.714;2023-05-12T11:42:06;99882.31;;;19.62;93.49
71195;BME280;58908;51.426;7.714;2023-05-12T11:44:35;99874.09;;;19.92;94.41
71195;BME280;58908;51.426;7.714;2023-05-12T11:47:01;99866.28;;;20.64;94.58
71195;BME280;58908;51.426;7.714;2023-05-12T11:49:28;99876.56;;;20.41;90.14
71195;BME280;58908;51.426;7.714;2023-05-12T11:51:56;99876.66;;;19.84;91.20
71195;BME280;58908;51.426;7.714;2023-05-12T11:54:22;99870.53;;;20.20;92.22
71195;BME280;58908;51.426;7.714;2023-05-12T11:56:49;99875.66;;;19.85;89.69
71195;BME280;58908;51.426;7.714;2023-05-12T11:59:25;99877.16;;;20.26;91.81
71195;BME280;58908;51.426;7.714;2023-05-12T12:01:53;99885.38;;;19.86;90.95
71195;BME280;58908;51.426;7.714;2023-05-12T12:04:29;99876.81;;;19.45;89.87
71195;BME280;58908;51.426;7.714;2023-05-12T12:06:56;99883.81;;;19.37;90.36
71195;BME280;58908;51.426;7.714;2023-05-12T12:09:28;99891.72;;;19.66;93.58
71195;BME280;58908;51.426;7.714;2023-05-12T12:11:55;99890.59;;;19.50;94.44
71195;BME280;58908;51.426;7.714;2023-05-12T12:14:21;99891.47;;;19.51;90.40
71195;BME280;58908;51.426;7.714;2023-05-12T12:16:47;99882.72;;;19.58;88.43
71195;BME280;58908;51.426;7.714;2023-05-12T12:19:15;99882.72;;;19.58;90.15
71195;BME280;58908;51.426;7.714;2023-05-12T12:21:41;99884.41;;;19.68;91.44
71195;BME280;58908;51.426;7.714;2023-05-12T12:24:08;99885.63;;;19.27;89.53
71195;BME280;58908;51.426;7.714;2023-05-12T12:26:34;99897.78;;;19.40;91.62
71195;BME280;58908;51.426;7.714;2023-05-12T12:29:01;99898.97;;;19.17;89.53
71195;BME280;58908;51.426;7.714;2023-05-12T12:31:27;99889.88;;;19.57;89.68
71195;BME280;58908;51.426;7.714;2023-05-12T12:33:54;99887.50;;;19.54;89.28
71195;BME280;58908;51.426;7.714;2023-05-12T12:36:21;99887.66;;;19.62;88.75
71195;BME280;58908;51.426;7.714;2023-05-12T12:38:47;99889.47;;;19.34;87.42
71195;BME280;58908;51.426;7.714;2023-05-12T12:41:14;99886.94;;;19.70;88.28
71195;BME280;58908;51.426;7.714;2023-05-12T12:43:40;99890.03;;;19.84;89.36
71195;BME280;58908;51.426;7.714;2023-05-12T12:46:06;99885.38;;;19.86;90.25
71195;BME280;58908;51.426;7.714;2023-05-12T12:48:32;99880.72;;;19.69;90.29